
Distance (Route):
Temperature : -48.2°C
Humidity : 3.1%
Pressure : 17.2hPa| Receiver | Frames | First received | Last received |
|---|---|---|---|
| DL1XH-west | 31 | 2026-09-01 12:39:43 | 2026-09-01 12:45:53 |
| DL1XH1-15 | 19 | 2026-09-01 12:41:24 | 2026-09-01 12:45:57 |
| DJ2DS-15 | 3 | 2026-09-01 12:33:31 | 2026-09-01 12:38:19 |
| Receiver | Date | Latitude | Longitude | Direction | Speed | Altitude | Climb | Temperature | Humidity | Pressure | Voltage | Killtimer | Uptime | BKT | XDATA |
|---|---|---|---|---|---|---|---|---|---|---|---|---|---|---|---|
| DL1XH1-15 | 2026-09-01 12:45:57 | 59.10406 | 6.45396 | 72° | 15km/h | 27882m | -31.3m/s | -48.2°C | 3.1% | 17.2hPa | 2.6V | 08:30:00 | 02:03:55 | 00:00:00 | |
| DL1XH-west | 2026-09-01 12:45:53 | 59.10406 | 6.45396 | 73° | 15km/h | 27882m | -31.3m/s | -48.2°C | 0% | 17.2hPa | 2.6V | 18:12:15 | 02:03:55 | 00:00:00 | |
| DL1XH1-15 | 2026-09-01 12:45:46 | 59.10393 | 6.45352 | 49° | 16km/h | 28194m | -25.4m/s | -48.6°C | 3.3% | 16.4hPa | 2.7V | 08:30:00 | 02:03:44 | 00:00:00 | |
| DL1XH-west | 2026-09-01 12:45:43 | 59.10396 | 6.45357 | 36° | 15km/h | 28168m | -27.1m/s | -48.6°C | 0% | 16.4hPa | 2.6V | 18:12:15 | 02:03:45 | 00:00:00 | |
| DL1XH-west | 2026-09-01 12:45:32 | 59.10364 | 6.45276 | 47° | 22km/h | 28393m | -26.1m/s | -48°C | 0% | 15.9hPa | 2.6V | 18:12:15 | 02:03:35 | 00:00:00 | |
| DL1XH-west | 2026-09-01 12:45:21 | 59.10322 | 6.45197 | 54° | 16km/h | 28812m | -28m/s | -48°C | 0% | 14.9hPa | 2.6V | 18:12:15 | 02:03:18 | 00:00:00 | |
| DL1XH1-15 | 2026-09-01 12:45:20 | 59.10329 | 6.45212 | 44° | 13km/h | 28740m | -23.1m/s | -47.9°C | 3.2% | 15hPa | 2.7V | 08:30:00 | 02:03:21 | 00:00:00 | |
| DL1XH1-15 | 2026-09-01 12:45:14 | 59.10295 | 6.45134 | 50° | 26km/h | 29006m | -26.4m/s | -47.6°C | 3.2% | 14.4hPa | 2.7V | 08:30:00 | 02:03:11 | 00:00:00 | |
| DL1XH-west | 2026-09-01 12:45:06 | 59.10283 | 6.45110 | 50° | 20km/h | 29085m | -24.5m/s | -47.3°C | 0% | 14.2hPa | 2.6V | 18:12:15 | 02:03:08 | 00:00:00 | |
| DL1XH1-15 | 2026-09-01 12:45:00 | 59.10263 | 6.45036 | 60° | 38km/h | 29283m | -28.3m/s | -46.7°C | 3.1% | 13.8hPa | 2.7V | 08:30:00 | 02:03:01 | 00:00:00 | |
| DL1XH-west | 2026-09-01 12:44:55 | 59.10247 | 6.44980 | 61° | 47km/h | 29356m | -23m/s | -46.1°C | 0% | 13.7hPa | 2.6V | 18:12:15 | 02:02:58 | 00:00:00 | |
| DL1XH1-15 | 2026-09-01 12:44:33 | 59.10252 | 6.44631 | 83° | 24km/h | 29557m | 6.9m/s | -45.4°C | 2.7% | 13.2hPa | 2.7V | 08:30:00 | 02:02:31 | 00:00:00 | |
| DL1XH-west | 2026-09-01 12:44:30 | 59.10252 | 6.44643 | 95° | 22km/h | 29563m | 5.1m/s | -45.3°C | 0% | 13.2hPa | 2.6V | 18:12:15 | 02:02:32 | 00:00:00 | |
| DL1XH1-15 | 2026-09-01 12:44:20 | 59.10236 | 6.44419 | 72° | 33km/h | 29473m | 6.7m/s | -45.5°C | 2.7% | 13.4hPa | 2.6V | 08:30:00 | 02:02:17 | 00:00:00 | |
| DL1XH-west | 2026-09-01 12:44:19 | 59.10242 | 6.44491 | 82° | 31km/h | 29503m | 6m/s | -45.5°C | 0% | 13.4hPa | 2.6V | 18:12:15 | 02:02:22 | 00:00:00 | |
| DL1XH-west | 2026-09-01 12:44:08 | 59.10219 | 6.44309 | 86° | 40km/h | 29438m | 4.5m/s | -45.7°C | 0% | 13.5hPa | 2.7V | 18:12:15 | 02:02:11 | 00:00:00 | |
| DL1XH-west | 2026-09-01 12:43:51 | 59.10153 | 6.43954 | 43° | 31km/h | 29304m | 6.4m/s | -46.7°C | 0% | 13.8hPa | 2.6V | 18:12:15 | 02:01:48 | 00:00:00 | |
| DL1XH1-15 | 2026-09-01 12:43:44 | 59.10139 | 6.43932 | 40° | 37km/h | 29291m | 5m/s | -46.8°C | 2.9% | 13.8hPa | 2.7V | 08:30:00 | 02:01:46 | 00:00:00 | |
| DL1XH-west | 2026-09-01 12:43:36 | 59.10115 | 6.43841 | 79° | 27km/h | 29249m | 5.2m/s | -46.8°C | 0% | 13.9hPa | 2.7V | 18:12:15 | 02:01:39 | 00:00:00 | |
| DL1XH-west | 2026-09-01 12:43:18 | 59.10027 | 6.43662 | 32° | 31km/h | 29131m | 4.8m/s | -47.1°C | 0% | 14.2hPa | 2.7V | 18:12:15 | 02:01:19 | 00:00:00 | |
| DL1XH1-15 | 2026-09-01 12:43:09 | 59.09988 | 6.43541 | 59° | 13km/h | 29061m | 4.6m/s | -47.4°C | 3% | 14.3hPa | 2.6V | 08:30:00 | 02:01:07 | 00:00:00 | |
| DL1XH-west | 2026-09-01 12:43:04 | 59.09988 | 6.43541 | 59° | 13km/h | 29061m | 4.6m/s | -47.4°C | 0% | 14.3hPa | 2.6V | 18:12:15 | 02:01:07 | 00:00:00 | |
| DL1XH-west | 2026-09-01 12:42:54 | 59.09955 | 6.43452 | 52° | 27km/h | 29001m | 4.7m/s | -47.6°C | 0% | 14.4hPa | 2.6V | 18:12:15 | 02:00:57 | 00:00:00 | |
| DL1XH1-15 | 2026-09-01 12:42:54 | 59.09951 | 6.43442 | 49° | 26km/h | 28997m | 5m/s | -47.6°C | 0% | 14.4hPa | 2.7V | 08:30:00 | 02:00:56 | 00:00:00 | |
| DL1XH1-15 | 2026-09-01 12:42:44 | 59.09914 | 6.43396 | 62° | 24km/h | 28936m | 5.2m/s | -47.7°C | 0% | 14.6hPa | 2.7V | 08:30:00 | 02:00:46 | 00:00:00 | |
| DL1XH-west | 2026-09-01 12:42:44 | 59.09917 | 6.43406 | 53° | 22km/h | 28941m | 5.9m/s | -47.6°C | 0% | 14.6hPa | 2.6V | 18:12:15 | 02:00:47 | 00:00:00 | |
| DL1XH1-15 | 2026-09-01 12:42:34 | 59.09885 | 6.43350 | 337° | 15km/h | 28877m | 4.3m/s | -48°C | 0% | 14.7hPa | 2.7V | 08:30:00 | 02:00:36 | 00:00:00 | |
| DL1XH-west | 2026-09-01 12:42:34 | 59.09889 | 6.43346 | 328° | 16km/h | 28883m | 5.1m/s | -48°C | 0% | 14.7hPa | 2.6V | 18:12:15 | 02:00:37 | 00:00:00 | |
| DL1XH1-15 | 2026-09-01 12:42:24 | 59.09866 | 6.43289 | 49° | 15km/h | 28819m | 5.1m/s | -47.9°C | 0% | 0hPa | 2.7V | 08:30:00 | 02:00:26 | 00:00:00 | |
| DL1XH-west | 2026-09-01 12:42:24 | 59.09866 | 6.43289 | 49° | 15km/h | 28819m | 5.1m/s | -47.9°C | 0% | 14.8hPa | 2.7V | 18:12:15 | 02:00:26 | 00:00:00 | |
| DL1XH1-15 | 2026-09-01 12:42:14 | 59.09850 | 6.43272 | 58° | 7km/h | 28762m | 6.8m/s | -47.8°C | 0% | 0hPa | 2.7V | 08:30:00 | 02:00:16 | 00:00:00 | |
| DL1XH-west | 2026-09-01 12:42:13 | 59.09849 | 6.43268 | 47° | 13km/h | 28755m | 6.3m/s | -47.7°C | 0% | 15hPa | 2.7V | 18:12:15 | 02:00:15 | 00:00:00 | |
| DL1XH1-15 | 2026-09-01 12:42:08 | 59.09825 | 6.43242 | 13° | 7km/h | 28694m | 6.5m/s | -47.6°C | 0% | 0hPa | 2.7V | 08:30:00 | 02:00:05 | 00:00:00 | |
| DL1XH-west | 2026-09-01 12:42:03 | 59.09823 | 6.43241 | 36° | 5km/h | 28689m | 5m/s | -47.5°C | 0% | 15.1hPa | 2.7V | 18:12:15 | 02:00:04 | 00:00:00 | |
| DL1XH1-15 | 2026-09-01 12:41:54 | 59.09809 | 6.43202 | 62° | 9km/h | 28643m | 5.1m/s | 0°C | 0% | 0hPa | 2.7V | 08:30:00 | 01:59:56 | 00:00:00 | |
| DL1XH-west | 2026-09-01 12:41:52 | 59.09807 | 6.43199 | 43° | 11km/h | 28637m | 6.9m/s | 0°C | 0% | 15.3hPa | 2.7V | 18:12:15 | 01:59:55 | 00:00:00 | |
| DL1XH1-15 | 2026-09-01 12:41:44 | 59.09785 | 6.43183 | 20° | 18km/h | 28584m | 5.6m/s | 0°C | 0% | 0hPa | 2.7V | 00:00:00 | 01:59:46 | 00:00:00 | |
| DL1XH-west | 2026-09-01 12:41:41 | 59.09775 | 6.43171 | 55° | 11km/h | 28566m | 5.2m/s | 0°C | 0% | 15.4hPa | 2.6V | 18:12:15 | 01:59:43 | 00:00:00 | |
| DL1XH1-15 | 2026-09-01 12:41:34 | 59.09762 | 6.43136 | 28° | 7km/h | 28524m | 5.1m/s | 0°C | 0% | 0hPa | 2.7V | 00:00:00 | 01:59:36 | 00:00:00 | |
| DL1XH-west | 2026-09-01 12:41:29 | 59.09746 | 6.43128 | 25° | 16km/h | 28494m | 7.2m/s | 0°C | 0% | 0hPa | 2.7V | 18:12:15 | 01:59:31 | 00:00:00 | |
| DL1XH1-15 | 2026-09-01 12:41:24 | 59.09729 | 6.43093 | 45° | 24km/h | 28465m | 5m/s | 0°C | 0% | 0hPa | 2.7V | 00:00:00 | 01:59:26 | 00:00:00 | |
| DL1XH-west | 2026-09-01 12:41:19 | 59.09717 | 6.43064 | 55° | 11km/h | 28435m | 6.5m/s | 0°C | 0% | 0hPa | 2.7V | 18:12:15 | 01:59:21 | 00:00:00 | |
| DL1XH-west | 2026-09-01 12:41:08 | 59.09685 | 6.42996 | 23° | 20km/h | 28376m | 5.6m/s | 0°C | 0% | 0hPa | 2.7V | 18:12:15 | 01:59:11 | 00:00:00 | |
| DL1XH-west | 2026-09-01 12:40:58 | 59.09654 | 6.42936 | 55° | 22km/h | 28315m | 4.1m/s | 0°C | 0% | 0hPa | 2.7V | 18:12:15 | 01:59:01 | 00:00:00 | |
| DL1XH-west | 2026-09-01 12:40:46 | 59.09604 | 6.42883 | 25° | 13km/h | 28246m | 5.5m/s | 0°C | 0% | 0hPa | 2.7V | 18:12:15 | 01:58:49 | 00:00:00 | |
| DL1XH-west | 2026-09-01 12:40:34 | 59.09566 | 6.42821 | 146° | 2km/h | 28177m | 6.9m/s | 0°C | 0% | 0hPa | 2.6V | 18:12:15 | 01:58:37 | 00:00:00 | |
| DL1XH-west | 2026-09-01 12:40:24 | 59.09571 | 6.42821 | 54° | 13km/h | 28114m | 6.2m/s | 0°C | 0% | 0hPa | 2.7V | 18:12:15 | 01:58:26 | 00:00:00 | |
| DL1XH-west | 2026-09-01 12:40:03 | 59.09573 | 6.42739 | 91° | 15km/h | 28001m | 6.1m/s | 0°C | 0% | 0hPa | 2.7V | 18:12:15 | 01:58:06 | 00:00:00 | |
| DL1XH-west | 2026-09-01 12:39:53 | 59.09564 | 6.42692 | 61° | 15km/h | 27943m | 5.3m/s | 0°C | 0% | 0hPa | 2.7V | 18:12:15 | 01:57:56 | 00:00:00 | |
| DL1XH-west | 2026-09-01 12:39:43 | 59.09534 | 6.42627 | 41° | 18km/h | 27885m | 6.6m/s | 0°C | 0% | 0hPa | 2.7V | 18:12:15 | 01:57:46 | 00:00:00 | |
| DJ2DS-15 | 2026-09-01 12:38:19 | 59.09173 | 6.42019 | 4° | 24km/h | 27414m | 4.7m/s | -48.8°C | 0.7% | 18.4hPa | 0V | 00:00:00 | 00:00:00 | 00:00:00 | |
| DJ2DS-15 | 2026-09-01 12:37:07 | 59.08911 | 6.41835 | 19° | 18km/h | 27010m | 5.7m/s | -49.1°C | 0.7% | 19.6hPa | 0V | 00:00:00 | 00:00:00 | 00:00:00 | |
| DJ2DS-15 | 2026-09-01 12:33:31 | 59.08541 | 6.41400 | 38° | 16km/h | 25779m | 5.1m/s | -47.9°C | 0.6% | 23.7hPa | 0V | 00:00:00 | 00:00:00 | 00:00:00 |